sensor_id;sensor_type;location;lat;lon;timestamp;P1;durP1;ratioP1;P2;durP2;ratioP2
5507;SDS011;2776;51.046;6.772;2022-09-04T00:00:31;4.10;;;3.80;;
5507;SDS011;2776;51.046;6.772;2022-09-04T00:03:04;4.30;;;3.90;;
5507;SDS011;2776;51.046;6.772;2022-09-04T00:05:41;5.10;;;4.47;;
5507;SDS011;2776;51.046;6.772;2022-09-04T00:08:23;4.90;;;4.00;;
5507;SDS011;2776;51.046;6.772;2022-09-04T00:10:58;5.13;;;4.63;;
5507;SDS011;2776;51.046;6.772;2022-09-04T00:13:32;4.23;;;3.93;;
5507;SDS011;2776;51.046;6.772;2022-09-04T00:16:04;4.40;;;4.00;;
5507;SDS011;2776;51.046;6.772;2022-09-04T00:18:35;4.90;;;4.40;;
5507;SDS011;2776;51.046;6.772;2022-09-04T00:21:06;5.13;;;4.53;;
5507;SDS011;2776;51.046;6.772;2022-09-04T00:23:41;4.97;;;4.43;;
5507;SDS011;2776;51.046;6.772;2022-09-04T00:26:13;5.40;;;4.90;;
5507;SDS011;2776;51.046;6.772;2022-09-04T00:28:54;5.03;;;4.63;;
5507;SDS011;2776;51.046;6.772;2022-09-04T00:31:24;4.73;;;4.33;;
5507;SDS011;2776;51.046;6.772;2022-09-04T00:33:59;5.33;;;4.93;;
5507;SDS011;2776;51.046;6.772;2022-09-04T00:36:34;5.70;;;5.10;;
5507;SDS011;2776;51.046;6.772;2022-09-04T00:39:07;4.83;;;4.43;;
5507;SDS011;2776;51.046;6.772;2022-09-04T00:41:40;5.00;;;4.60;;
5507;SDS011;2776;51.046;6.772;2022-09-04T00:44:22;4.90;;;4.43;;
5507;SDS011;2776;51.046;6.772;2022-09-04T00:50:17;5.23;;;4.83;;
5507;SDS011;2776;51.046;6.772;2022-09-04T00:53:04;5.47;;;4.97;;
5507;SDS011;2776;51.046;6.772;2022-09-04T00:55:57;5.27;;;4.87;;
5507;SDS011;2776;51.046;6.772;2022-09-04T00:58:51;5.10;;;4.70;;
5507;SDS011;2776;51.046;6.772;2022-09-04T01:01:31;6.10;;;5.60;;
5507;SDS011;2776;51.046;6.772;2022-09-04T01:04:02;5.70;;;5.20;;
5507;SDS011;2776;51.046;6.772;2022-09-04T01:06:44;5.87;;;5.37;;
5507;SDS011;2776;51.046;6.772;2022-09-04T01:12:15;6.00;;;5.37;;
5507;SDS011;2776;51.046;6.772;2022-09-04T01:14:53;6.17;;;5.67;;
5507;SDS011;2776;51.046;6.772;2022-09-04T01:17:34;5.97;;;5.33;;
5507;SDS011;2776;51.046;6.772;2022-09-04T01:20:08;5.90;;;5.33;;
5507;SDS011;2776;51.046;6.772;2022-09-04T01:22:50;6.20;;;5.70;;
5507;SDS011;2776;51.046;6.772;2022-09-04T01:25:29;5.80;;;5.20;;
5507;SDS011;2776;51.046;6.772;2022-09-04T01:28:08;6.00;;;5.50;;
5507;SDS011;2776;51.046;6.772;2022-09-04T01:30:44;6.57;;;5.93;;
5507;SDS011;2776;51.046;6.772;2022-09-04T01:33:17;6.20;;;5.60;;
5507;SDS011;2776;51.046;6.772;2022-09-04T01:35:50;6.10;;;5.60;;
5507;SDS011;2776;51.046;6.772;2022-09-04T01:38:21;6.73;;;6.23;;
5507;SDS011;2776;51.046;6.772;2022-09-04T01:41:00;6.77;;;6.17;;
5507;SDS011;2776;51.046;6.772;2022-09-04T01:43:31;8.07;;;6.60;;
5507;SDS011;2776;51.046;6.772;2022-09-04T01:46:08;6.63;;;6.03;;
5507;SDS011;2776;51.046;6.772;2022-09-04T01:48:44;6.50;;;5.90;;
5507;SDS011;2776;51.046;6.772;2022-09-04T01:51:20;7.17;;;6.57;;
5507;SDS011;2776;51.046;6.772;2022-09-04T01:53:56;7.03;;;6.27;;
5507;SDS011;2776;51.046;6.772;2022-09-04T01:56:36;7.47;;;6.80;;
5507;SDS011;2776;51.046;6.772;2022-09-04T01:59:10;7.57;;;6.93;;
5507;SDS011;2776;51.046;6.772;2022-09-04T02:01:47;7.47;;;6.87;;
5507;SDS011;2776;51.046;6.772;2022-09-04T02:04:20;7.47;;;6.77;;
5507;SDS011;2776;51.046;6.772;2022-09-04T02:06:55;7.70;;;7.00;;
5507;SDS011;2776;51.046;6.772;2022-09-04T02:09:30;6.83;;;6.13;;
5507;SDS011;2776;51.046;6.772;2022-09-04T02:12:05;8.00;;;7.27;;
5507;SDS011;2776;51.046;6.772;2022-09-04T02:14:43;7.87;;;7.10;;
5507;SDS011;2776;51.046;6.772;2022-09-04T02:17:20;8.50;;;7.80;;
5507;SDS011;2776;51.046;6.772;2022-09-04T02:20:00;8.87;;;8.07;;
5507;SDS011;2776;51.046;6.772;2022-09-04T02:22:34;9.33;;;8.53;;
5507;SDS011;2776;51.046;6.772;2022-09-04T02:25:11;8.43;;;7.63;;
5507;SDS011;2776;51.046;6.772;2022-09-04T02:27:51;9.43;;;8.57;;
5507;SDS011;2776;51.046;6.772;2022-09-04T02:30:24;8.63;;;7.83;;
5507;SDS011;2776;51.046;6.772;2022-09-04T02:32:55;9.00;;;8.20;;
5507;SDS011;2776;51.046;6.772;2022-09-04T02:35:28;9.37;;;8.43;;
5507;SDS011;2776;51.046;6.772;2022-09-04T02:38:03;9.63;;;8.83;;
5507;SDS011;2776;51.046;6.772;2022-09-04T02:40:38;9.83;;;8.83;;
5507;SDS011;2776;51.046;6.772;2022-09-04T02:43:21;9.20;;;8.30;;
5507;SDS011;2776;51.046;6.772;2022-09-04T02:46:01;10.07;;;9.17;;
5507;SDS011;2776;51.046;6.772;2022-09-04T02:48:32;9.30;;;8.50;;
5507;SDS011;2776;51.046;6.772;2022-09-04T02:51:17;9.37;;;8.57;;
5507;SDS011;2776;51.046;6.772;2022-09-04T02:53:53;9.63;;;8.83;;
5507;SDS011;2776;51.046;6.772;2022-09-04T02:56:30;10.83;;;8.60;;
5507;SDS011;2776;51.046;6.772;2022-09-04T02:59:14;10.40;;;9.30;;
5507;SDS011;2776;51.046;6.772;2022-09-04T03:01:50;10.00;;;9.10;;
5507;SDS011;2776;51.046;6.772;2022-09-04T03:04:23;10.40;;;9.33;;
5507;SDS011;2776;51.046;6.772;2022-09-04T03:06:58;10.37;;;9.37;;
5507;SDS011;2776;51.046;6.772;2022-09-04T03:09:31;10.60;;;9.67;;
5507;SDS011;2776;51.046;6.772;2022-09-04T03:12:07;10.20;;;9.20;;
5507;SDS011;2776;51.046;6.772;2022-09-04T03:14:53;10.93;;;9.83;;
5507;SDS011;2776;51.046;6.772;2022-09-04T03:17:27;11.47;;;10.07;;
5507;SDS011;2776;51.046;6.772;2022-09-04T03:20:01;10.20;;;9.30;;
5507;SDS011;2776;51.046;6.772;2022-09-04T03:22:33;10.97;;;9.97;;
5507;SDS011;2776;51.046;6.772;2022-09-04T03:25:10;10.20;;;9.27;;
5507;SDS011;2776;51.046;6.772;2022-09-04T03:27:53;9.90;;;9.00;;
5507;SDS011;2776;51.046;6.772;2022-09-04T03:30:21;11.07;;;10.07;;
5507;SDS011;2776;51.046;6.772;2022-09-04T03:32:49;11.03;;;9.83;;
5507;SDS011;2776;51.046;6.772;2022-09-04T03:35:23;10.23;;;9.30;;
5507;SDS011;2776;51.046;6.772;2022-09-04T03:37:59;11.63;;;10.60;;
5507;SDS011;2776;51.046;6.772;2022-09-04T03:40:35;11.00;;;9.90;;
5507;SDS011;2776;51.046;6.772;2022-09-04T03:45:57;11.23;;;10.13;;
5507;SDS011;2776;51.046;6.772;2022-09-04T03:48:38;10.03;;;9.13;;
5507;SDS011;2776;51.046;6.772;2022-09-04T03:51:15;11.77;;;10.63;;
5507;SDS011;2776;51.046;6.772;2022-09-04T03:53:51;10.70;;;9.73;;
5507;SDS011;2776;51.046;6.772;2022-09-04T03:59:22;11.27;;;10.27;;
5507;SDS011;2776;51.046;6.772;2022-09-04T04:02:02;10.73;;;9.67;;
5507;SDS011;2776;51.046;6.772;2022-09-04T04:04:43;10.90;;;9.90;;
5507;SDS011;2776;51.046;6.772;2022-09-04T04:07:37;12.30;;;9.83;;
5507;SDS011;2776;51.046;6.772;2022-09-04T04:10:21;10.90;;;9.90;;
5507;SDS011;2776;51.046;6.772;2022-09-04T04:16:10;10.27;;;9.40;;
5507;SDS011;2776;51.046;6.772;2022-09-04T04:19:04;11.60;;;10.40;;
5507;SDS011;2776;51.046;6.772;2022-09-04T04:21:49;10.50;;;9.50;;
5507;SDS011;2776;51.046;6.772;2022-09-04T04:27:44;10.70;;;9.67;;
5507;SDS011;2776;51.046;6.772;2022-09-04T04:30:29;9.47;;;8.30;;
5507;SDS011;2776;51.046;6.772;2022-09-04T04:33:11;10.40;;;9.40;;
5507;SDS011;2776;51.046;6.772;2022-09-04T04:35:51;10.10;;;9.10;;
5507;SDS011;2776;51.046;6.772;2022-09-04T04:38:29;10.13;;;9.23;;
5507;SDS011;2776;51.046;6.772;2022-09-04T04:41:08;9.97;;;8.63;;
5507;SDS011;2776;51.046;6.772;2022-09-04T04:43:49;10.20;;;9.20;;
5507;SDS011;2776;51.046;6.772;2022-09-04T04:46:26;10.60;;;9.60;;
5507;SDS011;2776;51.046;6.772;2022-09-04T04:49:08;10.20;;;9.17;;
5507;SDS011;2776;51.046;6.772;2022-09-04T04:52:04;11.77;;;9.63;;
5507;SDS011;2776;51.046;6.772;2022-09-04T04:54:58;9.87;;;8.97;;
5507;SDS011;2776;51.046;6.772;2022-09-04T04:57:32;10.00;;;9.10;;
5507;SDS011;2776;51.046;6.772;2022-09-04T05:00:07;9.57;;;8.67;;
5507;SDS011;2776;51.046;6.772;2022-09-04T05:02:41;11.10;;;10.00;;
5507;SDS011;2776;51.046;6.772;2022-09-04T05:05:18;10.83;;;9.27;;
5507;SDS011;2776;51.046;6.772;2022-09-04T05:07:55;10.03;;;9.13;;
5507;SDS011;2776;51.046;6.772;2022-09-04T05:10:28;10.30;;;9.30;;
5507;SDS011;2776;51.046;6.772;2022-09-04T05:13:02;10.47;;;9.47;;
5507;SDS011;2776;51.046;6.772;2022-09-04T05:15:37;10.87;;;9.87;;
5507;SDS011;2776;51.046;6.772;2022-09-04T05:18:12;10.13;;;9.17;;
5507;SDS011;2776;51.046;6.772;2022-09-04T05:20:46;11.47;;;9.97;;
5507;SDS011;2776;51.046;6.772;2022-09-04T05:23:21;10.50;;;9.30;;
5507;SDS011;2776;51.046;6.772;2022-09-04T05:25:56;10.33;;;9.17;;
5507;SDS011;2776;51.046;6.772;2022-09-04T05:28:32;10.37;;;9.37;;
5507;SDS011;2776;51.046;6.772;2022-09-04T05:31:11;11.03;;;9.93;;
5507;SDS011;2776;51.046;6.772;2022-09-04T05:33:48;9.57;;;8.67;;
5507;SDS011;2776;51.046;6.772;2022-09-04T05:36:23;8.77;;;7.97;;
5507;SDS011;2776;51.046;6.772;2022-09-04T05:39:01;9.13;;;8.17;;
5507;SDS011;2776;51.046;6.772;2022-09-04T05:41:38;8.63;;;7.83;;
5507;SDS011;2776;51.046;6.772;2022-09-04T05:44:21;9.17;;;8.37;;
5507;SDS011;2776;51.046;6.772;2022-09-04T05:47:04;9.37;;;8.40;;
5507;SDS011;2776;51.046;6.772;2022-09-04T05:49:42;8.37;;;7.67;;
5507;SDS011;2776;51.046;6.772;2022-09-04T05:52:29;8.83;;;8.03;;
5507;SDS011;2776;51.046;6.772;2022-09-04T05:55:13;9.00;;;8.20;;
5507;SDS011;2776;51.046;6.772;2022-09-04T05:58:15;8.70;;;7.90;;
5507;SDS011;2776;51.046;6.772;2022-09-04T06:01:00;9.63;;;8.63;;
5507;SDS011;2776;51.046;6.772;2022-09-04T06:03:50;8.43;;;7.33;;
5507;SDS011;2776;51.046;6.772;2022-09-04T06:06:30;8.67;;;7.87;;
5507;SDS011;2776;51.046;6.772;2022-09-04T06:12:07;8.23;;;7.20;;
5507;SDS011;2776;51.046;6.772;2022-09-04T06:14:58;8.57;;;7.27;;
5507;SDS011;2776;51.046;6.772;2022-09-04T06:17:51;7.87;;;7.10;;
5507;SDS011;2776;51.046;6.772;2022-09-04T06:20:35;8.50;;;7.67;;
5507;SDS011;2776;51.046;6.772;2022-09-04T06:26:16;7.50;;;6.70;;
5507;SDS011;2776;51.046;6.772;2022-09-04T06:29:00;7.70;;;7.00;;
5507;SDS011;2776;51.046;6.772;2022-09-04T06:34:38;6.67;;;6.07;;
5507;SDS011;2776;51.046;6.772;2022-09-04T06:37:24;6.47;;;5.93;;
5507;SDS011;2776;51.046;6.772;2022-09-04T06:40:07;6.67;;;6.07;;
5507;SDS011;2776;51.046;6.772;2022-09-04T06:42:50;7.73;;;7.03;;
5507;SDS011;2776;51.046;6.772;2022-09-04T06:45:32;7.13;;;6.47;;
5507;SDS011;2776;51.046;6.772;2022-09-04T06:48:12;6.70;;;6.10;;
5507;SDS011;2776;51.046;6.772;2022-09-04T06:50:50;8.00;;;7.17;;
5507;SDS011;2776;51.046;6.772;2022-09-04T06:53:26;7.50;;;6.77;;
5507;SDS011;2776;51.046;6.772;2022-09-04T06:56:07;7.07;;;6.40;;
5507;SDS011;2776;51.046;6.772;2022-09-04T06:58:46;6.43;;;5.83;;
5507;SDS011;2776;51.046;6.772;2022-09-04T07:01:29;6.67;;;6.07;;
5507;SDS011;2776;51.046;6.772;2022-09-04T07:04:10;7.37;;;6.33;;
5507;SDS011;2776;51.046;6.772;2022-09-04T07:06:53;6.97;;;6.37;;
5507;SDS011;2776;51.046;6.772;2022-09-04T07:09:29;6.57;;;5.87;;
5507;SDS011;2776;51.046;6.772;2022-09-04T07:15:15;6.70;;;6.00;;
5507;SDS011;2776;51.046;6.772;2022-09-04T07:18:01;6.63;;;5.97;;
5507;SDS011;2776;51.046;6.772;2022-09-04T07:20:39;6.00;;;5.50;;
5507;SDS011;2776;51.046;6.772;2022-09-04T07:23:20;8.30;;;6.20;;
5507;SDS011;2776;51.046;6.772;2022-09-04T07:25:56;5.80;;;5.28;;
5507;SDS011;2776;51.046;6.772;2022-09-04T07:28:32;5.70;;;5.10;;
5507;SDS011;2776;51.046;6.772;2022-09-04T07:31:09;6.93;;;4.80;;
5507;SDS011;2776;51.046;6.772;2022-09-04T07:33:45;5.90;;;5.32;;
5507;SDS011;2776;51.046;6.772;2022-09-04T07:36:17;5.00;;;4.60;;
5507;SDS011;2776;51.046;6.772;2022-09-04T07:38:51;5.30;;;4.80;;
5507;SDS011;2776;51.046;6.772;2022-09-04T07:41:25;7.63;;;4.50;;
5507;SDS011;2776;51.046;6.772;2022-09-04T07:43:59;4.80;;;4.40;;
5507;SDS011;2776;51.046;6.772;2022-09-04T07:46:34;5.68;;;4.18;;
5507;SDS011;2776;51.046;6.772;2022-09-04T07:49:11;5.05;;;4.40;;
5507;SDS011;2776;51.046;6.772;2022-09-04T07:51:45;6.90;;;4.40;;
5507;SDS011;2776;51.046;6.772;2022-09-04T07:54:28;4.80;;;4.40;;
5507;SDS011;2776;51.046;6.772;2022-09-04T07:57:23;4.55;;;4.10;;
5507;SDS011;2776;51.046;6.772;2022-09-04T08:00:03;6.65;;;4.30;;
5507;SDS011;2776;51.046;6.772;2022-09-04T08:02:37;5.32;;;3.88;;
5507;SDS011;2776;51.046;6.772;2022-09-04T08:05:26;4.65;;;3.92;;
5507;SDS011;2776;51.046;6.772;2022-09-04T08:11:15;4.65;;;3.60;;
5507;SDS011;2776;51.046;6.772;2022-09-04T08:14:01;4.25;;;3.85;;
5507;SDS011;2776;51.046;6.772;2022-09-04T08:16:41;5.25;;;4.15;;
5507;SDS011;2776;51.046;6.772;2022-09-04T08:19:14;6.80;;;3.30;;
5507;SDS011;2776;51.046;6.772;2022-09-04T08:21:53;4.30;;;3.63;;
5507;SDS011;2776;51.046;6.772;2022-09-04T08:24:29;3.58;;;3.28;;
5507;SDS011;2776;51.046;6.772;2022-09-04T08:27:23;4.63;;;3.70;;
5507;SDS011;2776;51.046;6.772;2022-09-04T08:30:03;2.90;;;2.70;;
5507;SDS011;2776;51.046;6.772;2022-09-04T08:32:53;5.15;;;3.20;;
5507;SDS011;2776;51.046;6.772;2022-09-04T08:35:34;3.17;;;2.88;;
5507;SDS011;2776;51.046;6.772;2022-09-04T08:38:16;3.40;;;2.80;;
5507;SDS011;2776;51.046;6.772;2022-09-04T08:41:07;4.45;;;2.72;;
5507;SDS011;2776;51.046;6.772;2022-09-04T08:44:00;4.68;;;2.80;;
5507;SDS011;2776;51.046;6.772;2022-09-04T08:53:30;2.53;;;2.28;;
5507;SDS011;2776;51.046;6.772;2022-09-04T08:56:17;3.58;;;2.50;;
5507;SDS011;2776;51.046;6.772;2022-09-04T09:05:16;3.58;;;3.20;;
5507;SDS011;2776;51.046;6.772;2022-09-04T09:08:05;4.20;;;3.70;;
5507;SDS011;2776;51.046;6.772;2022-09-04T09:11:08;3.17;;;2.67;;
5507;SDS011;2776;51.046;6.772;2022-09-04T09:17:11;4.30;;;2.80;;
5507;SDS011;2776;51.046;6.772;2022-09-04T09:19:44;4.03;;;3.08;;
5507;SDS011;2776;51.046;6.772;2022-09-04T09:22:36;3.33;;;2.78;;
5507;SDS011;2776;51.046;6.772;2022-09-04T09:25:15;3.78;;;2.92;;
5507;SDS011;2776;51.046;6.772;2022-09-04T09:31:03;2.65;;;2.45;;
5507;SDS011;2776;51.046;6.772;2022-09-04T09:37:37;4.45;;;3.00;;
5507;SDS011;2776;51.046;6.772;2022-09-04T09:49:42;2.92;;;2.22;;
5507;SDS011;2776;51.046;6.772;2022-09-04T09:58:49;4.45;;;2.35;;
5507;SDS011;2776;51.046;6.772;2022-09-04T10:01:33;3.80;;;2.70;;
5507;SDS011;2776;51.046;6.772;2022-09-04T10:04:23;2.47;;;1.92;;
5507;SDS011;2776;51.046;6.772;2022-09-04T10:07:40;3.00;;;1.70;;
5507;SDS011;2776;51.046;6.772;2022-09-04T10:10:44;3.90;;;1.52;;
5507;SDS011;2776;51.046;6.772;2022-09-04T10:17:00;5.18;;;2.08;;
5507;SDS011;2776;51.046;6.772;2022-09-04T10:19:58;1.88;;;1.70;;
5507;SDS011;2776;51.046;6.772;2022-09-04T10:22:42;1.95;;;1.75;;
5507;SDS011;2776;51.046;6.772;2022-09-04T10:25:49;2.05;;;1.85;;
5507;SDS011;2776;51.046;6.772;2022-09-04T10:28:41;1.88;;;1.58;;
5507;SDS011;2776;51.046;6.772;2022-09-04T10:31:44;3.15;;;1.58;;
5507;SDS011;2776;51.046;6.772;2022-09-04T10:34:34;1.70;;;1.60;;
5507;SDS011;2776;51.046;6.772;2022-09-04T10:37:15;2.55;;;1.40;;
5507;SDS011;2776;51.046;6.772;2022-09-04T10:39:59;3.88;;;1.33;;
5507;SDS011;2776;51.046;6.772;2022-09-04T10:43:01;2.63;;;1.42;;
5507;SDS011;2776;51.046;6.772;2022-09-04T10:45:51;2.58;;;1.52;;
5507;SDS011;2776;51.046;6.772;2022-09-04T10:48:40;2.17;;;2.00;;
5507;SDS011;2776;51.046;6.772;2022-09-04T10:51:47;5.68;;;4.63;;
5507;SDS011;2776;51.046;6.772;2022-09-04T10:54:46;3.58;;;3.28;;
5507;SDS011;2776;51.046;6.772;2022-09-04T11:00:45;4.15;;;2.22;;
5507;SDS011;2776;51.046;6.772;2022-09-04T11:03:40;2.53;;;1.70;;
5507;SDS011;2776;51.046;6.772;2022-09-04T11:06:24;7.45;;;5.40;;
5507;SDS011;2776;51.046;6.772;2022-09-04T11:15:24;1.85;;;1.50;;
5507;SDS011;2776;51.046;6.772;2022-09-04T11:18:13;2.60;;;2.40;;
5507;SDS011;2776;51.046;6.772;2022-09-04T11:24:05;3.53;;;2.40;;
5507;SDS011;2776;51.046;6.772;2022-09-04T11:27:03;3.00;;;2.22;;
5507;SDS011;2776;51.046;6.772;2022-09-04T11:29:57;2.08;;;1.85;;
5507;SDS011;2776;51.046;6.772;2022-09-04T11:44:49;1.73;;;1.15;;
5507;SDS011;2776;51.046;6.772;2022-09-04T11:47:54;3.88;;;3.40;;
5507;SDS011;2776;51.046;6.772;2022-09-04T11:50:50;1.70;;;1.52;;
5507;SDS011;2776;51.046;6.772;2022-09-04T11:56:49;5.05;;;4.30;;
5507;SDS011;2776;51.046;6.772;2022-09-04T11:59:38;1.83;;;1.40;;
5507;SDS011;2776;51.046;6.772;2022-09-04T12:02:28;2.95;;;2.00;;
5507;SDS011;2776;51.046;6.772;2022-09-04T12:05:09;2.90;;;2.13;;
5507;SDS011;2776;51.046;6.772;2022-09-04T12:07:46;3.75;;;2.05;;
5507;SDS011;2776;51.046;6.772;2022-09-04T12:10:34;2.13;;;1.70;;
5507;SDS011;2776;51.046;6.772;2022-09-04T12:13:19;4.03;;;1.63;;
5507;SDS011;2776;51.046;6.772;2022-09-04T12:16:12;2.53;;;1.40;;
5507;SDS011;2776;51.046;6.772;2022-09-04T12:19:18;1.77;;;1.48;;
5507;SDS011;2776;51.046;6.772;2022-09-04T12:22:15;4.00;;;1.58;;
5507;SDS011;2776;51.046;6.772;2022-09-04T12:25:06;1.88;;;1.30;;
5507;SDS011;2776;51.046;6.772;2022-09-04T12:27:56;2.05;;;1.20;;
5507;SDS011;2776;51.046;6.772;2022-09-04T12:30:48;3.35;;;1.30;;
5507;SDS011;2776;51.046;6.772;2022-09-04T12:33:33;1.65;;;1.55;;
5507;SDS011;2776;51.046;6.772;2022-09-04T12:36:31;1.40;;;1.30;;
5507;SDS011;2776;51.046;6.772;2022-09-04T12:39:35;5.30;;;1.77;;
5507;SDS011;2776;51.046;6.772;2022-09-04T12:42:17;2.20;;;1.50;;
5507;SDS011;2776;51.046;6.772;2022-09-04T12:44:50;1.75;;;1.30;;
5507;SDS011;2776;51.046;6.772;2022-09-04T12:47:31;2.70;;;1.58;;
5507;SDS011;2776;51.046;6.772;2022-09-04T12:50:14;2.47;;;1.33;;
5507;SDS011;2776;51.046;6.772;2022-09-04T12:55:46;3.45;;;1.60;;
5507;SDS011;2776;51.046;6.772;2022-09-04T12:58:30;1.73;;;1.63;;
5507;SDS011;2776;51.046;6.772;2022-09-04T13:01:18;3.08;;;1.42;;
5507;SDS011;2776;51.046;6.772;2022-09-04T13:03:56;1.30;;;1.20;;
5507;SDS011;2776;51.046;6.772;2022-09-04T13:06:32;1.10;;;1.10;;
5507;SDS011;2776;51.046;6.772;2022-09-04T13:09:11;2.00;;;1.90;;
5507;SDS011;2776;51.046;6.772;2022-09-04T13:11:51;1.23;;;1.10;;
5507;SDS011;2776;51.046;6.772;2022-09-04T13:14:35;3.60;;;1.10;;
5507;SDS011;2776;51.046;6.772;2022-09-04T13:17:28;1.30;;;1.10;;
5507;SDS011;2776;51.046;6.772;2022-09-04T13:20:04;2.00;;;1.23;;
5507;SDS011;2776;51.046;6.772;2022-09-04T13:22:47;1.42;;;1.30;;
5507;SDS011;2776;51.046;6.772;2022-09-04T13:25:31;5.28;;;1.20;;
5507;SDS011;2776;51.046;6.772;2022-09-04T13:28:13;2.95;;;2.70;;
5507;SDS011;2776;51.046;6.772;2022-09-04T13:30:50;3.58;;;2.22;;
5507;SDS011;2776;51.046;6.772;2022-09-04T13:33:26;2.88;;;2.67;;
5507;SDS011;2776;51.046;6.772;2022-09-04T13:36:09;1.65;;;1.25;;
5507;SDS011;2776;51.046;6.772;2022-09-04T13:38:48;1.17;;;1.17;;
5507;SDS011;2776;51.046;6.772;2022-09-04T13:41:40;2.50;;;2.17;;
5507;SDS011;2776;51.046;6.772;2022-09-04T13:44:25;1.35;;;1.25;;
5507;SDS011;2776;51.046;6.772;2022-09-04T13:47:05;2.03;;;1.45;;
5507;SDS011;2776;51.046;6.772;2022-09-04T13:49:37;1.98;;;1.40;;
5507;SDS011;2776;51.046;6.772;2022-09-04T13:52:11;1.60;;;1.50;;
5507;SDS011;2776;51.046;6.772;2022-09-04T13:54:42;1.85;;;1.40;;
5507;SDS011;2776;51.046;6.772;2022-09-04T13:57:17;2.47;;;1.60;;
5507;SDS011;2776;51.046;6.772;2022-09-04T13:59:48;1.42;;;1.30;;
5507;SDS011;2776;51.046;6.772;2022-09-04T14:02:19;1.60;;;1.33;;
5507;SDS011;2776;51.046;6.772;2022-09-04T14:04:48;1.95;;;1.30;;
5507;SDS011;2776;51.046;6.772;2022-09-04T14:07:21;1.15;;;1.08;;
5507;SDS011;2776;51.046;6.772;2022-09-04T14:09:54;2.65;;;1.50;;
5507;SDS011;2776;51.046;6.772;2022-09-04T14:12:30;2.58;;;2.35;;
5507;SDS011;2776;51.046;6.772;2022-09-04T14:15:30;2.50;;;1.60;;
5507;SDS011;2776;51.046;6.772;2022-09-04T14:18:14;2.17;;;1.60;;
5507;SDS011;2776;51.046;6.772;2022-09-04T14:20:53;2.80;;;1.70;;
5507;SDS011;2776;51.046;6.772;2022-09-04T14:23:27;2.00;;;1.35;;
5507;SDS011;2776;51.046;6.772;2022-09-04T14:26:09;1.70;;;1.60;;
5507;SDS011;2776;51.046;6.772;2022-09-04T14:28:43;2.38;;;1.50;;
5507;SDS011;2776;51.046;6.772;2022-09-04T14:31:17;1.58;;;1.33;;
5507;SDS011;2776;51.046;6.772;2022-09-04T14:33:52;4.30;;;1.45;;
5507;SDS011;2776;51.046;6.772;2022-09-04T14:36:31;1.80;;;1.40;;
5507;SDS011;2776;51.046;6.772;2022-09-04T14:39:15;1.50;;;1.38;;
5507;SDS011;2776;51.046;6.772;2022-09-04T14:44:44;1.88;;;1.60;;
5507;SDS011;2776;51.046;6.772;2022-09-04T14:47:25;1.77;;;1.40;;
5507;SDS011;2776;51.046;6.772;2022-09-04T14:49:56;3.03;;;1.40;;
5507;SDS011;2776;51.046;6.772;2022-09-04T14:52:27;3.13;;;1.50;;
5507;SDS011;2776;51.046;6.772;2022-09-04T14:54:59;3.88;;;1.80;;
5507;SDS011;2776;51.046;6.772;2022-09-04T14:57:29;2.80;;;1.70;;
5507;SDS011;2776;51.046;6.772;2022-09-04T15:00:04;2.60;;;1.40;;
5507;SDS011;2776;51.046;6.772;2022-09-04T15:02:39;1.40;;;1.27;;
5507;SDS011;2776;51.046;6.772;2022-09-04T15:05:14;1.60;;;1.50;;
5507;SDS011;2776;51.046;6.772;2022-09-04T15:07:49;1.80;;;1.70;;
5507;SDS011;2776;51.046;6.772;2022-09-04T15:10:24;4.78;;;1.88;;
5507;SDS011;2776;51.046;6.772;2022-09-04T15:13:16;4.93;;;3.42;;
5507;SDS011;2776;51.046;6.772;2022-09-04T15:16:16;7.25;;;6.20;;
5507;SDS011;2776;51.046;6.772;2022-09-04T15:18:54;4.10;;;2.72;;
5507;SDS011;2776;51.046;6.772;2022-09-04T15:21:27;3.45;;;2.10;;
5507;SDS011;2776;51.046;6.772;2022-09-04T15:24:01;2.55;;;1.90;;
5507;SDS011;2776;51.046;6.772;2022-09-04T15:26:40;2.85;;;1.65;;
5507;SDS011;2776;51.046;6.772;2022-09-04T15:29:12;2.03;;;1.50;;
5507;SDS011;2776;51.046;6.772;2022-09-04T15:31:43;2.20;;;1.60;;
5507;SDS011;2776;51.046;6.772;2022-09-04T15:34:11;2.95;;;1.38;;
5507;SDS011;2776;51.046;6.772;2022-09-04T15:36:45;1.83;;;1.73;;
5507;SDS011;2776;51.046;6.772;2022-09-04T15:39:13;4.03;;;1.77;;
5507;SDS011;2776;51.046;6.772;2022-09-04T15:41:53;2.25;;;1.80;;
5507;SDS011;2776;51.046;6.772;2022-09-04T15:44:21;1.75;;;1.48;;
5507;SDS011;2776;51.046;6.772;2022-09-04T15:46:55;2.63;;;1.50;;
5507;SDS011;2776;51.046;6.772;2022-09-04T15:49:29;1.63;;;1.52;;
5507;SDS011;2776;51.046;6.772;2022-09-04T15:52:09;3.00;;;1.45;;
5507;SDS011;2776;51.046;6.772;2022-09-04T15:54:53;2.47;;;1.65;;
5507;SDS011;2776;51.046;6.772;2022-09-04T15:57:32;1.70;;;1.52;;
5507;SDS011;2776;51.046;6.772;2022-09-04T16:00:13;4.40;;;1.60;;
5507;SDS011;2776;51.046;6.772;2022-09-04T16:02:44;1.58;;;1.40;;
5507;SDS011;2776;51.046;6.772;2022-09-04T16:05:20;3.42;;;1.60;;
5507;SDS011;2776;51.046;6.772;2022-09-04T16:07:53;1.55;;;1.45;;
5507;SDS011;2776;51.046;6.772;2022-09-04T16:10:29;2.00;;;1.55;;
5507;SDS011;2776;51.046;6.772;2022-09-04T16:16:18;3.50;;;1.40;;
5507;SDS011;2776;51.046;6.772;2022-09-04T16:18:50;1.60;;;1.50;;
5507;SDS011;2776;51.046;6.772;2022-09-04T16:21:27;3.83;;;1.50;;
5507;SDS011;2776;51.046;6.772;2022-09-04T16:24:05;2.13;;;1.75;;
5507;SDS011;2776;51.046;6.772;2022-09-04T16:26:34;2.33;;;1.58;;
5507;SDS011;2776;51.046;6.772;2022-09-04T16:29:04;3.10;;;1.50;;
5507;SDS011;2776;51.046;6.772;2022-09-04T16:31:36;1.60;;;1.50;;
5507;SDS011;2776;51.046;6.772;2022-09-04T16:34:05;2.22;;;1.77;;
5507;SDS011;2776;51.046;6.772;2022-09-04T16:36:40;2.05;;;1.40;;
5507;SDS011;2776;51.046;6.772;2022-09-04T16:39:11;2.75;;;1.85;;
5507;SDS011;2776;51.046;6.772;2022-09-04T16:41:48;1.50;;;1.40;;
5507;SDS011;2776;51.046;6.772;2022-09-04T16:44:21;2.78;;;1.45;;
5507;SDS011;2776;51.046;6.772;2022-09-04T16:46:54;2.78;;;1.40;;
5507;SDS011;2776;51.046;6.772;2022-09-04T16:49:30;2.15;;;1.60;;
5507;SDS011;2776;51.046;6.772;2022-09-04T16:52:18;1.35;;;1.25;;
5507;SDS011;2776;51.046;6.772;2022-09-04T16:54:51;1.90;;;1.40;;
5507;SDS011;2776;51.046;6.772;2022-09-04T16:57:19;1.65;;;1.55;;
5507;SDS011;2776;51.046;6.772;2022-09-04T16:59:54;1.98;;;1.58;;
5507;SDS011;2776;51.046;6.772;2022-09-04T17:02:26;2.90;;;1.60;;
5507;SDS011;2776;51.046;6.772;2022-09-04T17:05:07;4.00;;;1.55;;
5507;SDS011;2776;51.046;6.772;2022-09-04T17:07:43;1.83;;;1.50;;
5507;SDS011;2776;51.046;6.772;2022-09-04T17:10:20;2.75;;;1.40;;
5507;SDS011;2776;51.046;6.772;2022-09-04T17:13:01;3.47;;;1.38;;
5507;SDS011;2776;51.046;6.772;2022-09-04T17:15:37;2.00;;;1.27;;
5507;SDS011;2776;51.046;6.772;2022-09-04T17:18:12;1.40;;;1.30;;
5507;SDS011;2776;51.046;6.772;2022-09-04T17:20:45;2.03;;;1.58;;
5507;SDS011;2776;51.046;6.772;2022-09-04T17:23:22;1.30;;;1.20;;
5507;SDS011;2776;51.046;6.772;2022-09-04T17:25:53;1.83;;;1.42;;
5507;SDS011;2776;51.046;6.772;2022-09-04T17:28:29;2.15;;;1.27;;
5507;SDS011;2776;51.046;6.772;2022-09-04T17:31:13;3.95;;;1.40;;
5507;SDS011;2776;51.046;6.772;2022-09-04T17:33:44;1.60;;;1.50;;
5507;SDS011;2776;51.046;6.772;2022-09-04T17:36:19;2.03;;;1.48;;
5507;SDS011;2776;51.046;6.772;2022-09-04T17:38:53;2.90;;;1.40;;
5507;SDS011;2776;51.046;6.772;2022-09-04T17:41:24;1.75;;;1.40;;
5507;SDS011;2776;51.046;6.772;2022-09-04T17:44:08;2.90;;;1.60;;
5507;SDS011;2776;51.046;6.772;2022-09-04T17:46:51;1.60;;;1.50;;
5507;SDS011;2776;51.046;6.772;2022-09-04T17:49:28;2.72;;;1.70;;
5507;SDS011;2776;51.046;6.772;2022-09-04T17:51:58;1.80;;;1.70;;
5507;SDS011;2776;51.046;6.772;2022-09-04T17:54:26;2.80;;;1.52;;
5507;SDS011;2776;51.046;6.772;2022-09-04T17:56:57;2.55;;;1.90;;
5507;SDS011;2776;51.046;6.772;2022-09-04T17:59:28;4.05;;;1.73;;
5507;SDS011;2776;51.046;6.772;2022-09-04T18:02:02;4.57;;;1.98;;
5507;SDS011;2776;51.046;6.772;2022-09-04T18:04:37;1.95;;;1.63;;
5507;SDS011;2776;51.046;6.772;2022-09-04T18:07:13;2.67;;;1.95;;
5507;SDS011;2776;51.046;6.772;2022-09-04T18:09:53;3.92;;;1.70;;
5507;SDS011;2776;51.046;6.772;2022-09-04T18:12:30;2.15;;;1.42;;
5507;SDS011;2776;51.046;6.772;2022-09-04T18:15:01;4.28;;;2.00;;
5507;SDS011;2776;51.046;6.772;2022-09-04T18:17:36;3.33;;;1.50;;
5507;SDS011;2776;51.046;6.772;2022-09-04T18:20:14;2.92;;;1.50;;
5507;SDS011;2776;51.046;6.772;2022-09-04T18:26:03;2.50;;;1.70;;